Luze — CURH9 — position and weather

sailwx.info

Track history (hours):
 
Tides and Currents Weather Stations Pressure Air Temp Water Temp Dewpoint Dewpoint Depression Visibility Wind Speed Wind Dir Waves Ship Positions

Luze

Last reported at 2017-Oct-19 18:32 UTC. Time now 2017-Oct-20 05:19 UTC.
Position N 37°32' W 009°03'.

Length 20 m.

Type: Fishing. MMSI: 263500360.

Date/timePositionNaut miles runAvg speedWind from/ knotsBaromVisibWave heightAir tempDewpointWater temp
2017-Oct-19 18:32N 37°32' W 009°03'1 1.2
2017-Oct-19 18:04N 37°31' W 009°03'0 1.3
2017-Oct-19 17:59N 37°31' W 009°03'1 1.1
2017-Oct-19 17:07N 37°31' W 009°02'1 5.4
2017-Oct-19 16:51N 37°30' W 009°01'2 2.2
2017-Oct-19 15:45N 37°28' W 009°00'2 5.8
2017-Oct-19 15:29N 37°30' W 009°00'12 7.6
2017-Oct-19 13:57N 37°41' W 008°57'3 7.1
2017-Oct-19 13:31N 37°44' W 008°56'4 7.1
2017-Oct-19 13:01N 37°48' W 008°55'3 6.9
2017-Oct-19 12:31N 37°51' W 008°54'4 7.4
2017-Oct-19 12:01N 37°54' W 008°53'3 5.4
2017-Oct-19 11:31N 37°57' W 008°52'0 0.0
2017-Oct-19 11:01N 37°57' W 008°52'0 0.0
2017-Oct-19 10:31N 37°57' W 008°52'0 0.0
2017-Oct-19 10:01N 37°57' W 008°52'0 0.2
2017-Oct-19 09:31N 37°57' W 008°52'0 0.0
2017-Oct-19 09:00N 37°57' W 008°52'0 0.0
2017-Oct-19 08:31N 37°57' W 008°52'0 0.0
2017-Oct-19 08:01N 37°57' W 008°52'0 0.2
2017-Oct-19 07:31N 37°57' W 008°52'0 0.0
2017-Oct-19 07:01N 37°57' W 008°52'0 0.0
2017-Oct-19 06:31N 37°57' W 008°52'0 0.0
2017-Oct-19 06:01N 37°57' W 008°52'0 0.0
2017-Oct-19 05:31N 37°57' W 008°52'0 0.0
2017-Oct-19 05:00N 37°57' W 008°52'0 0.0
2017-Oct-19 04:30N 37°57' W 008°52'0 0.0
2017-Oct-19 04:00N 37°57' W 008°52'0 0.4
2017-Oct-19 03:31N 37°57' W 008°52'3 5.3
2017-Oct-19 03:01N 37°54' W 008°53'3 6.8
2017-Oct-19 02:31N 37°51' W 008°55'4 7.4
2017-Oct-19 02:01N 37°48' W 008°57'3 6.8
2017-Oct-19 01:30N 37°45' W 008°59'4 6.8
2017-Oct-19 01:00N 37°41' W 009°00'12 4.5
2017-Oct-18 22:21N 37°30' W 009°03'0 0.8
2017-Oct-18 21:56N 37°29' W 009°03'2 0.1
2017-Oct-17 23:47N 37°31' W 009°03'12 7.8
2017-Oct-17 22:13N 37°41' W 009°13'0 0.6
2017-Oct-17 21:43N 37°40' W 009°13'0 0.9
2017-Oct-17 21:30N 37°40' W 009°13'1 1.0
2017-Oct-17 20:58N 37°40' W 009°13'4 0.2
2017-Oct-17 00:55N 37°44' W 009°11'3 7.6
2017-Oct-17 00:31N 37°45' W 009°08'4 8.1
2017-Oct-17 00:01N 37°48' W 009°04'4 7.7
2017-Oct-16 23:31N 37°51' W 009°01'4 7.4
2017-Oct-16 23:01N 37°53' W 008°57'4 7.5
2017-Oct-16 22:30N 37°55' W 008°53'2 3.8
2017-Oct-16 22:00N 37°57' W 008°52'0 0.0
2017-Oct-16 21:30N 37°57' W 008°52'0 0.0
2017-Oct-16 21:01N 37°57' W 008°52'0 0.0
2017-Oct-16 20:31N 37°57' W 008°52'0 0.0
2017-Oct-16 20:01N 37°57' W 008°52'0 0.1
2017-Oct-16 19:31N 37°57' W 008°52'0 0.0
2017-Oct-16 19:01N 37°57' W 008°52'  
2017-Oct-12 06:27N 37°57' W 008°52'0 0.0
2017-Oct-12 06:00N 37°57' W 008°52'0 0.2
2017-Oct-12 05:30N 37°57' W 008°52'2 3.2
2017-Oct-12 05:00N 37°56' W 008°53'3 6.3
2017-Oct-12 04:30N 37°52' W 008°53'2 4.1
2017-Oct-12 04:00N 37°50' W 008°53'2 4.1
2017-Oct-12 03:30N 37°48' W 008°53'2 4.0
2017-Oct-12 03:00N 37°46' W 008°52'2 4.1
2017-Oct-12 02:30N 37°44' W 008°52'2 4.1
2017-Oct-12 02:00N 37°42' W 008°52'8 3.5
2017-Oct-11 23:46N 37°34' W 008°52'1 3.4
2017-Oct-11 23:25N 37°33' W 008°52'1 3.0
2017-Oct-11 23:00N 37°32' W 008°52'0 0.6
2017-Oct-11 22:30N 37°32' W 008°52'3 6.1
2017-Oct-11 22:00N 37°35' W 008°52'1 2.6
2017-Oct-11 21:30N 37°36' W 008°52'1 2.2
2017-Oct-11 21:00N 37°37' W 008°52'2 3.0
2017-Oct-11 20:30N 37°39' W 008°52'2 3.0
2017-Oct-11 20:00N 37°40' W 008°52'0 0.9
2017-Oct-11 19:30N 37°40' W 008°51'1 1.4
2017-Oct-11 19:00N 37°40' W 008°52'1 2.5
2017-Oct-11 18:29N 37°39' W 008°52'0 0.7
2017-Oct-11 18:00N 37°39' W 008°52'1 1.1
2017-Oct-11 17:30N 37°39' W 008°52'0 0.9
2017-Oct-11 17:00N 37°40' W 008°52'5 0.3
2017-Oct-11 00:00N 37°35' W 008°54'1 1.4
2017-Oct-10 23:30N 37°35' W 008°54'1 1.8
2017-Oct-10 23:00N 37°34' W 008°55'2 3.7
2017-Oct-10 22:30N 37°33' W 008°55'1 2.4
2017-Oct-10 22:00N 37°31' W 008°55'1 2.7
2017-Oct-10 21:30N 37°32' W 008°57'4 7.3
2017-Oct-10 21:00N 37°33' W 009°01'4 7.7
2017-Oct-10 20:30N 37°36' W 009°04'4 7.8
2017-Oct-10 20:00N 37°38' W 009°08'4 7.6
2017-Oct-10 19:30N 37°41' W 009°12'3 5.7
2017-Oct-10 19:00N 37°42' W 009°15'0 0.8
2017-Oct-10 18:31N 37°42' W 009°15'1 1.2
2017-Oct-10 18:00N 37°41' W 009°14'1 1.2
2017-Oct-10 17:30N 37°41' W 009°14'1 1.2
2017-Oct-10 17:01N 37°40' W 009°14'1 1.3
2017-Oct-10 16:30N 37°40' W 009°13'1 1.3
2017-Oct-10 16:00N 37°39' W 009°13'0 0.7
2017-Oct-10 15:30N 37°39' W 009°13'2 3.5
2017-Oct-10 15:00N 37°39' W 009°11'8 8.2
2017-Oct-10 14:00N 37°45' W 009°03'4 8.4
2017-Oct-10 13:30N 37°48' W 008°60'4 8.1
2017-Oct-10 13:00N 37°50' W 008°56'1 1.9
2017-Oct-10 12:30N 37°49' W 008°56'1 2.7
2017-Oct-10 12:00N 37°50' W 008°55'1 1.1
2017-Oct-10 11:30N 37°50' W 008°55'1 1.1
2017-Oct-10 11:00N 37°51' W 008°55'0 0.9
2017-Oct-10 10:30N 37°51' W 008°55'0 0.8
2017-Oct-10 10:00N 37°52' W 008°55'0 0.8
2017-Oct-10 09:31N 37°52' W 008°55'0 1.0
2017-Oct-10 09:00N 37°53' W 008°55'1 1.2
2017-Oct-10 08:30N 37°52' W 008°55'3 5.7
2017-Oct-10 08:00N 37°50' W 008°57'0 0.7
2017-Oct-10 07:30N 37°50' W 008°58'1 1.3
2017-Oct-10 07:00N 37°50' W 008°58'2 4.0
2017-Oct-10 06:30N 37°48' W 009°00'2 4.1
2017-Oct-10 06:00N 37°47' W 009°02'2 4.1
2017-Oct-10 05:25N 37°45' W 009°04'2 4.2
2017-Oct-10 05:00N 37°43' W 009°05'2 4.1
2017-Oct-10 04:31N 37°42' W 009°07'2 4.4
2017-Oct-10 04:00N 37°41' W 009°09'2 4.2
2017-Oct-10 03:30N 37°40' W 009°11'2 4.1
2017-Oct-10 03:00N 37°38' W 009°13'4 7.7
2017-Oct-10 02:27N 37°42' W 009°15'2 4.4
2017-Oct-10 02:00N 37°41' W 009°13'0 0.9
2017-Oct-10 01:30N 37°42' W 009°13'0 0.8
2017-Oct-10 01:00N 37°42' W 009°13'0 0.7
2017-Oct-10 00:30N 37°42' W 009°14'2 3.9
2017-Oct-10 00:00N 37°42' W 009°11'3 5.5
2017-Oct-09 23:30N 37°40' W 009°08'3 5.8
2017-Oct-09 23:00N 37°39' W 009°05'3 5.8
2017-Oct-09 22:30N 37°38' W 009°01'3 5.6
2017-Oct-09 22:00N 37°37' W 008°58'4 4.6
2017-Oct-09 21:10N 37°35' W 008°54'0 2.5
2017-Oct-09 21:00N 37°35' W 008°54'2 3.0
2017-Oct-09 20:30N 37°37' W 008°54'2 3.2
2017-Oct-09 20:00N 37°39' W 008°54'2 3.5
2017-Oct-09 19:31N 37°40' W 008°54'1 1.4
2017-Oct-09 19:00N 37°41' W 008°54'  
Track history (hours):
 
Tides and Currents Weather Stations Pressure Air Temp Water Temp Dewpoint Dewpoint Depression Visibility Wind Speed Wind Dir Waves Ship Positions

Luze

Last reported at 2017-Oct-19 18:32 UTC. Time now 2017-Oct-20 05:19 UTC.
Position N 37°32' W 009°03'.

Length 20 m.

Type: Fishing. MMSI: 263500360.

Date/timePositionNaut miles runAvg speedWind from/ knotsBaromVisibWave heightAir tempDewpointWater temp
2017-Oct-19 18:32N 37°32' W 009°03'1 1.2
2017-Oct-19 18:04N 37°31' W 009°03'0 1.3
2017-Oct-19 17:59N 37°31' W 009°03'1 1.1
2017-Oct-19 17:07N 37°31' W 009°02'1 5.4
2017-Oct-19 16:51N 37°30' W 009°01'2 2.2
2017-Oct-19 15:45N 37°28' W 009°00'2 5.8
2017-Oct-19 15:29N 37°30' W 009°00'12 7.6
2017-Oct-19 13:57N 37°41' W 008°57'3 7.1
2017-Oct-19 13:31N 37°44' W 008°56'4 7.1
2017-Oct-19 13:01N 37°48' W 008°55'3 6.9
2017-Oct-19 12:31N 37°51' W 008°54'4 7.4
2017-Oct-19 12:01N 37°54' W 008°53'3 5.4
2017-Oct-19 11:31N 37°57' W 008°52'0 0.0
2017-Oct-19 11:01N 37°57' W 008°52'0 0.0
2017-Oct-19 10:31N 37°57' W 008°52'0 0.0
2017-Oct-19 10:01N 37°57' W 008°52'0 0.2
2017-Oct-19 09:31N 37°57' W 008°52'0 0.0
2017-Oct-19 09:00N 37°57' W 008°52'0 0.0
2017-Oct-19 08:31N 37°57' W 008°52'0 0.0
2017-Oct-19 08:01N 37°57' W 008°52'0 0.2
2017-Oct-19 07:31N 37°57' W 008°52'0 0.0
2017-Oct-19 07:01N 37°57' W 008°52'0 0.0
2017-Oct-19 06:31N 37°57' W 008°52'0 0.0
2017-Oct-19 06:01N 37°57' W 008°52'0 0.0
2017-Oct-19 05:31N 37°57' W 008°52'0 0.0
2017-Oct-19 05:00N 37°57' W 008°52'0 0.0
2017-Oct-19 04:30N 37°57' W 008°52'0 0.0
2017-Oct-19 04:00N 37°57' W 008°52'0 0.4
2017-Oct-19 03:31N 37°57' W 008°52'3 5.3
2017-Oct-19 03:01N 37°54' W 008°53'3 6.8
2017-Oct-19 02:31N 37°51' W 008°55'4 7.4
2017-Oct-19 02:01N 37°48' W 008°57'3 6.8
2017-Oct-19 01:30N 37°45' W 008°59'4 6.8
2017-Oct-19 01:00N 37°41' W 009°00'12 4.5
2017-Oct-18 22:21N 37°30' W 009°03'0 0.8
2017-Oct-18 21:56N 37°29' W 009°03'2 0.1
2017-Oct-17 23:47N 37°31' W 009°03'12 7.8
2017-Oct-17 22:13N 37°41' W 009°13'0 0.6
2017-Oct-17 21:43N 37°40' W 009°13'0 0.9
2017-Oct-17 21:30N 37°40' W 009°13'1 1.0
2017-Oct-17 20:58N 37°40' W 009°13'4 0.2
2017-Oct-17 00:55N 37°44' W 009°11'3 7.6
2017-Oct-17 00:31N 37°45' W 009°08'4 8.1
2017-Oct-17 00:01N 37°48' W 009°04'4 7.7
2017-Oct-16 23:31N 37°51' W 009°01'4 7.4
2017-Oct-16 23:01N 37°53' W 008°57'4 7.5
2017-Oct-16 22:30N 37°55' W 008°53'2 3.8
2017-Oct-16 22:00N 37°57' W 008°52'0 0.0
2017-Oct-16 21:30N 37°57' W 008°52'0 0.0
2017-Oct-16 21:01N 37°57' W 008°52'0 0.0
2017-Oct-16 20:31N 37°57' W 008°52'0 0.0
2017-Oct-16 20:01N 37°57' W 008°52'0 0.1
2017-Oct-16 19:31N 37°57' W 008°52'0 0.0
2017-Oct-16 19:01N 37°57' W 008°52'  
2017-Oct-12 06:27N 37°57' W 008°52'0 0.0
2017-Oct-12 06:00N 37°57' W 008°52'0 0.2
2017-Oct-12 05:30N 37°57' W 008°52'2 3.2
2017-Oct-12 05:00N 37°56' W 008°53'3 6.3
2017-Oct-12 04:30N 37°52' W 008°53'2 4.1
2017-Oct-12 04:00N 37°50' W 008°53'2 4.1
2017-Oct-12 03:30N 37°48' W 008°53'2 4.0
2017-Oct-12 03:00N 37°46' W 008°52'2 4.1
2017-Oct-12 02:30N 37°44' W 008°52'2 4.1
2017-Oct-12 02:00N 37°42' W 008°52'8 3.5
2017-Oct-11 23:46N 37°34' W 008°52'1 3.4
2017-Oct-11 23:25N 37°33' W 008°52'1 3.0
2017-Oct-11 23:00N 37°32' W 008°52'0 0.6
2017-Oct-11 22:30N 37°32' W 008°52'3 6.1
2017-Oct-11 22:00N 37°35' W 008°52'1 2.6
2017-Oct-11 21:30N 37°36' W 008°52'1 2.2
2017-Oct-11 21:00N 37°37' W 008°52'2 3.0
2017-Oct-11 20:30N 37°39' W 008°52'2 3.0
2017-Oct-11 20:00N 37°40' W 008°52'0 0.9
2017-Oct-11 19:30N 37°40' W 008°51'1 1.4
2017-Oct-11 19:00N 37°40' W 008°52'1 2.5
2017-Oct-11 18:29N 37°39' W 008°52'0 0.7
2017-Oct-11 18:00N 37°39' W 008°52'1 1.1
2017-Oct-11 17:30N 37°39' W 008°52'0 0.9
2017-Oct-11 17:00N 37°40' W 008°52'5 0.3
2017-Oct-11 00:00N 37°35' W 008°54'1 1.4
2017-Oct-10 23:30N 37°35' W 008°54'1 1.8
2017-Oct-10 23:00N 37°34' W 008°55'2 3.7
2017-Oct-10 22:30N 37°33' W 008°55'1 2.4
2017-Oct-10 22:00N 37°31' W 008°55'1 2.7
2017-Oct-10 21:30N 37°32' W 008°57'4 7.3
2017-Oct-10 21:00N 37°33' W 009°01'4 7.7
2017-Oct-10 20:30N 37°36' W 009°04'4 7.8
2017-Oct-10 20:00N 37°38' W 009°08'4 7.6
2017-Oct-10 19:30N 37°41' W 009°12'3 5.7
2017-Oct-10 19:00N 37°42' W 009°15'0 0.8
2017-Oct-10 18:31N 37°42' W 009°15'1 1.2
2017-Oct-10 18:00N 37°41' W 009°14'1 1.2
2017-Oct-10 17:30N 37°41' W 009°14'1 1.2
2017-Oct-10 17:01N 37°40' W 009°14'1 1.3
2017-Oct-10 16:30N 37°40' W 009°13'1 1.3
2017-Oct-10 16:00N 37°39' W 009°13'0 0.7
2017-Oct-10 15:30N 37°39' W 009°13'2 3.5
2017-Oct-10 15:00N 37°39' W 009°11'8 8.2
2017-Oct-10 14:00N 37°45' W 009°03'4 8.4
2017-Oct-10 13:30N 37°48' W 008°60'4 8.1
2017-Oct-10 13:00N 37°50' W 008°56'1 1.9
2017-Oct-10 12:30N 37°49' W 008°56'1 2.7
2017-Oct-10 12:00N 37°50' W 008°55'1 1.1
2017-Oct-10 11:30N 37°50' W 008°55'1 1.1
2017-Oct-10 11:00N 37°51' W 008°55'0 0.9
2017-Oct-10 10:30N 37°51' W 008°55'0 0.8
2017-Oct-10 10:00N 37°52' W 008°55'0 0.8
2017-Oct-10 09:31N 37°52' W 008°55'0 1.0
2017-Oct-10 09:00N 37°53' W 008°55'1 1.2
2017-Oct-10 08:30N 37°52' W 008°55'3 5.7
2017-Oct-10 08:00N 37°50' W 008°57'0 0.7
2017-Oct-10 07:30N 37°50' W 008°58'1 1.3
2017-Oct-10 07:00N 37°50' W 008°58'2 4.0
2017-Oct-10 06:30N 37°48' W 009°00'2 4.1
2017-Oct-10 06:00N 37°47' W 009°02'2 4.1
2017-Oct-10 05:25N 37°45' W 009°04'2 4.2
2017-Oct-10 05:00N 37°43' W 009°05'2 4.1
2017-Oct-10 04:31N 37°42' W 009°07'2 4.4
2017-Oct-10 04:00N 37°41' W 009°09'2 4.2
2017-Oct-10 03:30N 37°40' W 009°11'2 4.1
2017-Oct-10 03:00N 37°38' W 009°13'4 7.7
2017-Oct-10 02:27N 37°42' W 009°15'2 4.4
2017-Oct-10 02:00N 37°41' W 009°13'0 0.9
2017-Oct-10 01:30N 37°42' W 009°13'0 0.8
2017-Oct-10 01:00N 37°42' W 009°13'0 0.7
2017-Oct-10 00:30N 37°42' W 009°14'2 3.9
2017-Oct-10 00:00N 37°42' W 009°11'3 5.5
2017-Oct-09 23:30N 37°40' W 009°08'3 5.8
2017-Oct-09 23:00N 37°39' W 009°05'3 5.8
2017-Oct-09 22:30N 37°38' W 009°01'3 5.6
2017-Oct-09 22:00N 37°37' W 008°58'4 4.6
2017-Oct-09 21:10N 37°35' W 008°54'0 2.5
2017-Oct-09 21:00N 37°35' W 008°54'2 3.0
2017-Oct-09 20:30N 37°37' W 008°54'2 3.2
2017-Oct-09 20:00N 37°39' W 008°54'2 3.5
2017-Oct-09 19:31N 37°40' W 008°54'1 1.4
2017-Oct-09 19:00N 37°41' W 008°54'  

Dump ship's entire track history